Archival Weather

Chicago O'Hare International

Chicago, Illinois (KORD)

Report from: Thursday, December 29, 2022 8:51 AM CST
Current time: Friday, June 21, 2024 4:04 AM CDT

Current weather – Weather history – Daily summaries
Weather forecast

Temperature10.0°C (50.0°F)
Wind chill6.7°C (44.1°F)
Dew point7.2°C (45.0°F)
Winds 15 kts (7.7 m/s, 17.3 mph) South (190°)
Wind gusts 26 kts (13.4 m/s, 29.9 mph)
Peak wind 26 kts (13.4 m/s, 29.9 mph) South (180°) at 14:46
Visibility10 mi. (16.1 km)
Clouds Ceiling: Overcast 1,400 ft. (427 m)
Altimeter29.82 in.Hg (1010 mB)
Relative humidity83 %
Density altitude-345 ft. (-105 m)
Sea-level pressure101.0 kPa (1010 mB, 29.83 in.Hg)
Remarks Automated weather observing station with precipitation discriminator
Pressure rising more quickly
Flight conditions Marginal Visual Meteorological Conditions
Raw dataKORD 291451Z 19015G26KT 10SM OVC014 10/07 A2982 RMK AO2 PK WND 18026/1446 SLP101 T01000072 53015
An error has occurred. This application may no longer respond until reloaded. Reload 🗙